createdAt,value
2018-01-11T00:01:47.558Z,3.30
2018-01-11T00:04:17.347Z,3.30
2018-01-11T00:06:47.164Z,3.30
2018-01-11T00:09:16.969Z,3.30
2018-01-11T00:11:46.808Z,3.20
2018-01-11T00:14:17.408Z,3.30
2018-01-11T00:16:47.210Z,3.30
2018-01-11T00:19:17.041Z,3.20
2018-01-11T00:21:48.330Z,3.20
2018-01-11T00:24:18.167Z,3.20
2018-01-11T00:26:47.940Z,3.20
2018-01-11T00:29:18.515Z,3.20
2018-01-11T00:31:47.957Z,3.20
2018-01-11T00:34:17.805Z,3.20
2018-01-11T00:36:47.610Z,3.20
2018-01-11T00:39:18.259Z,3.20
2018-01-11T00:41:48.074Z,3.20
2018-01-11T00:44:17.897Z,3.20
2018-01-11T00:46:47.716Z,3.20
2018-01-11T00:49:17.530Z,3.30
2018-01-11T00:51:47.342Z,3.30
2018-01-11T00:54:17.125Z,3.20
2018-01-11T00:56:47.689Z,3.20
2018-01-11T00:59:17.545Z,3.20
2018-01-11T01:01:47.310Z,3.10
2018-01-11T01:04:17.114Z,3.10
2018-01-11T01:06:46.881Z,3.10
2018-01-11T01:09:16.676Z,3.10
2018-01-11T01:11:46.466Z,3.20
2018-01-11T01:14:16.244Z,3.20
2018-01-11T01:16:46.817Z,3.20
2018-01-11T01:19:16.594Z,3.20
2018-01-11T01:21:47.140Z,3.20
2018-01-11T01:24:16.930Z,3.10
2018-01-11T01:26:47.481Z,3.20
2018-01-11T01:29:17.299Z,3.20
2018-01-11T01:31:47.084Z,3.20
2018-01-11T01:34:17.815Z,3.20
2018-01-11T01:36:48.038Z,3.20
2018-01-11T01:39:18.607Z,3.20
2018-01-11T01:41:48.428Z,3.20
2018-01-11T01:44:18.207Z,3.20
2018-01-11T01:46:48.028Z,3.20
2018-01-11T01:49:17.833Z,3.20
2018-01-11T01:51:47.648Z,3.20
2018-01-11T01:54:17.428Z,3.20
2018-01-11T01:56:48.009Z,3.30
2018-01-11T01:59:17.904Z,3.30
2018-01-11T02:01:47.736Z,3.30
2018-01-11T02:04:17.529Z,3.30
2018-01-11T02:06:47.364Z,3.20
2018-01-11T02:09:17.165Z,3.20
2018-01-11T02:11:46.992Z,3.30
2018-01-11T02:14:16.800Z,3.30
2018-01-11T02:16:46.624Z,3.30
2018-01-11T02:19:16.392Z,3.30
2018-01-11T02:21:47.003Z,3.30
2018-01-11T02:24:16.802Z,3.30
2018-01-11T02:26:46.636Z,3.10
2018-01-11T02:29:16.436Z,3.10
2018-01-11T02:31:46.984Z,3.10
2018-01-11T02:34:17.570Z,3.10
2018-01-11T02:36:47.381Z,3.10
2018-01-11T02:39:17.226Z,3.20
2018-01-11T02:41:48.202Z,3.30
2018-01-11T02:44:17.981Z,3.20
2018-01-11T02:46:48.616Z,3.30
2018-01-11T02:49:19.157Z,3.30
2018-01-11T02:51:49.744Z,3.20
2018-01-11T02:54:19.596Z,3.20
2018-01-11T02:56:50.157Z,3.10
2018-01-11T02:59:19.974Z,3.10
2018-01-11T03:01:49.770Z,3.10
2018-01-11T03:04:19.582Z,3.10
2018-01-11T03:06:50.208Z,3.10
2018-01-11T03:09:19.988Z,3.10
2018-01-11T03:11:49.801Z,3.20
2018-01-11T03:14:20.370Z,3.20
2018-01-11T03:16:50.489Z,3.20
2018-01-11T03:19:20.296Z,3.20
2018-01-11T03:21:50.152Z,3.20
2018-01-11T03:24:19.961Z,3.20
2018-01-11T03:26:49.766Z,3.30
2018-01-11T03:29:19.640Z,3.40
2018-01-11T03:31:50.208Z,3.60
2018-01-11T03:34:20.069Z,3.60
2018-01-11T03:36:49.884Z,3.70
2018-01-11T03:39:20.450Z,3.60
2018-01-11T03:41:50.285Z,3.60
2018-01-11T03:44:20.070Z,3.70
2018-01-11T03:46:50.024Z,3.70
2018-01-11T03:49:20.624Z,3.70
2018-01-11T03:51:50.421Z,3.80
2018-01-11T03:54:20.986Z,3.90
2018-01-11T03:56:51.037Z,3.90
2018-01-11T03:59:20.817Z,3.80
2018-01-11T04:01:50.620Z,3.70
2018-01-11T04:04:20.423Z,3.50
2018-01-11T04:06:50.238Z,3.50
2018-01-11T04:09:20.018Z,3.50
2018-01-11T04:11:50.608Z,3.50
2018-01-11T04:14:20.415Z,3.50
2018-01-11T04:16:50.351Z,3.50
2018-01-11T04:19:20.116Z,3.60
2018-01-11T04:21:49.653Z,3.60
2018-01-11T04:24:19.425Z,3.60
2018-01-11T04:26:50.044Z,3.50
2018-01-11T04:29:21.375Z,3.50
2018-01-11T04:31:51.164Z,3.50
2018-01-11T04:34:21.001Z,3.50
2018-01-11T04:36:50.771Z,3.50
2018-01-11T04:39:20.577Z,3.60
2018-01-11T04:41:50.354Z,3.60
2018-01-11T04:44:20.928Z,3.60
2018-01-11T04:46:50.771Z,3.60
2018-01-11T04:49:20.542Z,3.60
2018-01-11T04:51:50.333Z,3.60
2018-01-11T04:54:20.141Z,3.60
2018-01-11T04:56:50.699Z,3.50
2018-01-11T04:59:20.557Z,3.50
2018-01-11T05:01:50.359Z,3.60
2018-01-11T05:04:20.174Z,3.50
2018-01-11T05:06:49.957Z,3.50
2018-01-11T05:09:19.758Z,3.50
2018-01-11T05:11:49.815Z,3.40
2018-01-11T05:14:19.636Z,3.40
2018-01-11T05:16:49.428Z,3.40
2018-01-11T05:19:19.428Z,3.40
2018-01-11T05:21:49.215Z,3.40
2018-01-11T05:24:19.869Z,3.40
2018-01-11T05:26:49.647Z,3.40
2018-01-11T05:29:20.235Z,3.20
2018-01-11T05:31:50.025Z,3.20
2018-01-11T05:34:19.856Z,3.20
2018-01-11T05:36:49.712Z,3.20
2018-01-11T05:39:20.254Z,3.20
2018-01-11T05:41:50.522Z,3.30
2018-01-11T05:44:20.317Z,3.30
2018-01-11T05:46:50.097Z,3.20
2018-01-11T05:49:20.745Z,3.20
2018-01-11T05:51:50.569Z,3.20
2018-01-11T05:54:20.419Z,3.20
2018-01-11T05:56:50.228Z,3.30
2018-01-11T05:59:20.103Z,3.20
2018-01-11T06:01:49.913Z,3.20
2018-01-11T06:04:19.766Z,3.20
2018-01-11T06:06:49.570Z,3.20
2018-01-11T06:09:20.072Z,3.30
2018-01-11T06:11:49.897Z,3.40
2018-01-11T06:14:19.693Z,3.40
2018-01-11T06:16:49.513Z,3.30
2018-01-11T06:19:19.316Z,3.30
2018-01-11T06:21:49.076Z,3.40
2018-01-11T06:24:18.913Z,3.30
2018-01-11T06:26:49.476Z,3.30
2018-01-11T06:29:19.305Z,3.30
2018-01-11T06:31:48.774Z,3.30
2018-01-11T06:34:19.368Z,3.30
2018-01-11T06:36:49.185Z,3.20
2018-01-11T06:39:18.982Z,3.30
2018-01-11T06:41:48.808Z,3.30
2018-01-11T06:44:18.586Z,3.40
2018-01-11T06:46:48.409Z,3.40
2018-01-11T06:49:18.204Z,3.40
2018-01-11T06:51:48.054Z,3.30
2018-01-11T06:54:17.983Z,3.40
2018-01-11T06:56:47.800Z,3.40
2018-01-11T06:59:17.640Z,3.40
2018-01-11T07:01:48.289Z,3.40
2018-01-11T07:04:18.103Z,3.40
2018-01-11T07:06:47.910Z,3.40
2018-01-11T07:09:17.744Z,3.40
2018-01-11T07:11:47.513Z,3.40
2018-01-11T07:14:18.160Z,3.40
2018-01-11T07:16:48.841Z,3.40
2018-01-11T07:19:18.760Z,3.50
2018-01-11T07:21:49.300Z,3.60
2018-01-11T07:24:19.893Z,3.60
2018-01-11T07:26:49.732Z,3.60
2018-01-11T07:29:20.276Z,3.60
2018-01-11T07:31:50.865Z,3.60
2018-01-11T07:34:20.636Z,3.60
2018-01-11T07:36:50.438Z,3.60
2018-01-11T07:39:20.305Z,3.60
2018-01-11T07:41:50.180Z,3.60
2018-01-11T07:44:19.961Z,3.60
2018-01-11T07:46:49.765Z,3.60
2018-01-11T07:49:19.545Z,3.60
2018-01-11T07:51:49.357Z,3.70
2018-01-11T07:54:19.196Z,3.70
2018-01-11T07:56:49.048Z,3.70
2018-01-11T07:59:18.821Z,3.70
2018-01-11T08:01:50.153Z,3.80
2018-01-11T08:04:19.994Z,3.80
2018-01-11T08:06:50.583Z,3.90
2018-01-11T08:09:20.432Z,3.90
2018-01-11T08:11:50.215Z,4.00
2018-01-11T08:14:20.094Z,4.00
2018-01-11T08:16:49.884Z,4.10
2018-01-11T08:19:20.496Z,4.00
2018-01-11T08:21:50.299Z,4.00
2018-01-11T08:24:20.102Z,4.10
2018-01-11T08:26:52.057Z,4.10
2018-01-11T08:29:21.875Z,4.10
2018-01-11T08:31:51.668Z,4.20
2018-01-11T08:34:21.215Z,4.20
2018-01-11T08:36:51.807Z,4.30
2018-01-11T08:39:21.638Z,4.30
2018-01-11T08:41:51.499Z,4.30
2018-01-11T08:44:21.012Z,4.30
2018-01-11T08:46:50.886Z,4.40
2018-01-11T08:49:20.645Z,4.40
2018-01-11T08:51:50.456Z,4.40
2018-01-11T08:54:19.956Z,4.40
2018-01-11T08:56:49.745Z,4.40
2018-01-11T08:59:20.325Z,4.40
2018-01-11T09:01:50.088Z,4.40
2018-01-11T09:04:20.669Z,4.40
2018-01-11T09:06:50.458Z,4.40
2018-01-11T09:09:20.272Z,4.50
2018-01-11T09:11:50.148Z,4.50
2018-01-11T09:14:20.730Z,4.50
2018-01-11T09:16:50.560Z,4.50
2018-01-11T09:19:20.392Z,4.50
2018-01-11T09:21:50.165Z,4.50
2018-01-11T09:24:19.998Z,4.50
2018-01-11T09:26:49.791Z,4.50
2018-01-11T09:29:19.688Z,4.50
2018-01-11T09:31:49.493Z,4.60
2018-01-11T09:34:18.995Z,4.50
2018-01-11T09:36:48.590Z,4.40
2018-01-11T09:39:19.129Z,4.30
2018-01-11T09:41:49.744Z,4.20
2018-01-11T09:44:20.284Z,4.20
2018-01-11T09:46:50.241Z,4.10
2018-01-11T09:49:20.136Z,4.10
2018-01-11T09:51:49.956Z,4.10
2018-01-11T09:54:19.769Z,4.10
2018-01-11T09:56:49.583Z,4.10
2018-01-11T09:59:19.372Z,4.00
2018-01-11T10:01:49.792Z,4.00
2018-01-11T10:04:20.361Z,4.00
2018-01-11T10:06:50.188Z,4.00
2018-01-11T10:09:19.971Z,4.00
2018-01-11T10:11:49.772Z,4.10
2018-01-11T10:14:20.312Z,4.00
2018-01-11T10:16:50.227Z,4.00
2018-01-11T10:19:19.996Z,4.00
2018-01-11T10:21:49.607Z,4.10
2018-01-11T10:24:19.269Z,4.10
2018-01-11T10:26:48.995Z,4.10
2018-01-11T10:29:18.494Z,4.10
2018-01-11T10:31:48.323Z,4.10
2018-01-11T10:34:18.160Z,4.20
2018-01-11T10:36:47.964Z,4.10
2018-01-11T10:39:17.752Z,4.10
2018-01-11T10:41:47.574Z,4.10
2018-01-11T10:44:17.373Z,4.20
2018-01-11T10:46:47.188Z,4.20
2018-01-11T10:49:16.995Z,4.10
2018-01-11T10:51:46.803Z,4.10
2018-01-11T10:54:16.617Z,4.10
2018-01-11T10:56:46.448Z,4.20
2018-01-11T10:59:16.246Z,4.20
2018-01-11T11:01:51.512Z,4.10
2018-01-11T11:04:21.318Z,4.20
2018-01-11T11:06:52.675Z,4.10
2018-01-11T11:09:24.117Z,4.10
2018-01-11T11:11:53.970Z,4.10
2018-01-11T11:14:24.638Z,4.10
2018-01-11T11:16:54.434Z,4.10
2018-01-11T11:19:24.243Z,4.10
2018-01-11T11:21:54.059Z,4.20
2018-01-11T11:24:23.896Z,4.20
2018-01-11T11:26:53.725Z,4.30
2018-01-11T11:29:24.321Z,4.30
2018-01-11T11:31:54.208Z,4.30
2018-01-11T11:34:24.253Z,4.30
2018-01-11T11:36:54.073Z,4.30
2018-01-11T11:39:23.952Z,4.30
2018-01-11T11:41:53.793Z,4.30
2018-01-11T11:44:23.668Z,4.30
2018-01-11T11:46:53.504Z,4.20
2018-01-11T11:49:24.167Z,4.50
2018-01-11T11:51:54.733Z,4.50
2018-01-11T11:54:24.586Z,4.50
2018-01-11T11:56:54.390Z,4.50
2018-01-11T11:59:24.208Z,4.50
2018-01-11T12:01:54.952Z,4.50
2018-01-11T12:04:24.805Z,4.50
2018-01-11T12:06:54.616Z,4.50
2018-01-11T12:09:24.446Z,4.60
2018-01-11T12:11:54.220Z,4.50
2018-01-11T12:14:24.008Z,4.60
2018-01-11T12:16:53.792Z,4.70
2018-01-11T12:19:23.620Z,4.70
2018-01-11T12:21:53.496Z,4.80
2018-01-11T12:24:23.386Z,4.80
2018-01-11T12:26:53.203Z,4.80
2018-01-11T12:29:23.023Z,4.80
2018-01-11T12:31:52.840Z,4.80
2018-01-11T12:34:22.628Z,4.90
2018-01-11T12:36:52.533Z,4.90
2018-01-11T12:39:22.313Z,4.90
2018-01-11T12:41:52.137Z,4.80
2018-01-11T12:44:21.979Z,4.80
2018-01-11T12:46:51.831Z,4.70
2018-01-11T12:49:22.377Z,4.80
2018-01-11T12:51:52.952Z,4.90
2018-01-11T12:54:22.829Z,4.90
2018-01-11T12:56:52.746Z,4.90
2018-01-11T12:59:22.559Z,4.90
2018-01-11T13:01:52.404Z,5.00
2018-01-11T13:04:22.201Z,5.00
2018-01-11T13:06:52.041Z,5.00
2018-01-11T13:09:21.818Z,4.90
2018-01-11T13:11:51.636Z,4.90
2018-01-11T13:14:21.444Z,5.00
2018-01-11T13:16:51.298Z,4.90
2018-01-11T13:19:21.064Z,4.80
2018-01-11T13:21:51.658Z,4.90
2018-01-11T13:24:22.945Z,4.90
2018-01-11T13:26:52.761Z,4.90
2018-01-11T13:29:22.530Z,4.90
2018-01-11T13:31:52.353Z,4.90
2018-01-11T13:34:22.935Z,4.90
2018-01-11T13:36:52.725Z,4.80
2018-01-11T13:39:22.539Z,4.90
2018-01-11T13:41:53.111Z,5.10
2018-01-11T13:44:22.920Z,5.00
2018-01-11T13:46:52.748Z,5.00
2018-01-11T13:49:22.544Z,5.00
2018-01-11T13:51:52.371Z,4.90
2018-01-11T13:54:22.204Z,4.80
2018-01-11T13:56:51.736Z,4.90
2018-01-11T13:59:22.344Z,4.90
2018-01-11T14:01:52.140Z,4.90
2018-01-11T14:04:21.917Z,4.90
2018-01-11T14:06:51.749Z,4.80
2018-01-11T14:09:21.521Z,4.80
2018-01-11T14:11:52.096Z,4.80
2018-01-11T14:14:21.916Z,4.80
2018-01-11T14:16:51.751Z,4.80
2018-01-11T14:19:21.527Z,5.00
2018-01-11T14:21:51.325Z,5.00
2018-01-11T14:24:21.152Z,5.10
2018-01-11T14:26:50.947Z,5.10
2018-01-11T14:29:20.741Z,5.00
2018-01-11T14:31:51.327Z,5.00
2018-01-11T14:34:21.182Z,5.00
2018-01-11T14:36:51.745Z,5.00
2018-01-11T14:39:21.576Z,5.00
2018-01-11T14:41:51.504Z,5.00
2018-01-11T14:44:21.298Z,4.90
2018-01-11T14:46:51.133Z,4.90
2018-01-11T14:49:20.840Z,4.90
2018-01-11T14:51:50.703Z,4.80
2018-01-11T14:54:20.513Z,4.80
2018-01-11T14:56:51.123Z,4.80
2018-01-11T14:59:20.897Z,4.80
2018-01-11T15:01:49.998Z,4.70
2018-01-11T15:04:20.060Z,4.70
2018-01-11T15:06:50.636Z,4.80
2018-01-11T15:09:20.428Z,4.70
2018-01-11T15:11:50.236Z,4.70
2018-01-11T15:14:20.038Z,4.70
2018-01-11T15:16:49.881Z,4.70
2018-01-11T15:19:19.669Z,4.70
2018-01-11T15:21:50.156Z,4.60
2018-01-11T15:24:19.950Z,4.60
2018-01-11T15:26:49.784Z,4.50
2018-01-11T15:29:19.601Z,4.60
2018-01-11T15:31:50.155Z,4.50
2018-01-11T15:34:20.732Z,4.50
2018-01-11T15:36:50.572Z,4.50
2018-01-11T15:39:20.384Z,4.60
2018-01-11T15:41:50.235Z,4.60
2018-01-11T15:44:20.054Z,4.50
2018-01-11T15:46:49.889Z,4.50
2018-01-11T15:49:19.694Z,4.40
2018-01-11T15:51:49.548Z,4.50
2018-01-11T15:54:19.085Z,4.50
2018-01-11T15:56:49.648Z,4.50
2018-01-11T15:59:19.473Z,4.50
2018-01-11T16:01:49.363Z,4.50
2018-01-11T16:04:19.158Z,4.50
2018-01-11T16:06:49.774Z,4.50
2018-01-11T16:09:21.086Z,4.50
2018-01-11T16:11:50.909Z,4.40
2018-01-11T16:14:20.822Z,4.50
2018-01-11T16:16:50.676Z,4.40
2018-01-11T16:19:20.837Z,4.40
2018-01-11T16:21:50.652Z,4.40
2018-01-11T16:24:20.489Z,4.40
2018-01-11T16:26:50.307Z,4.40
2018-01-11T16:29:20.101Z,4.40
2018-01-11T16:31:49.889Z,4.40
2018-01-11T16:34:19.701Z,4.40
2018-01-11T16:36:49.651Z,4.40
2018-01-11T16:39:19.673Z,4.30
2018-01-11T16:41:49.492Z,4.20
2018-01-11T16:44:19.326Z,4.10
2018-01-11T16:46:49.153Z,4.00
2018-01-11T16:49:19.721Z,3.90
2018-01-11T16:51:49.485Z,3.90
2018-01-11T16:54:19.297Z,3.90
2018-01-11T16:56:50.625Z,3.90
2018-01-11T16:59:20.450Z,3.80
2018-01-11T17:01:50.288Z,3.80
2018-01-11T17:04:20.871Z,3.80
2018-01-11T17:06:50.640Z,3.80
2018-01-11T17:09:21.295Z,3.80
2018-01-11T17:11:51.208Z,3.80
2018-01-11T17:14:21.033Z,3.80
2018-01-11T17:16:50.833Z,3.80
2018-01-11T17:19:20.638Z,3.70
2018-01-11T17:21:50.404Z,3.80
2018-01-11T17:24:20.028Z,3.80
2018-01-11T17:26:50.628Z,3.70
2018-01-11T17:29:20.410Z,3.70
2018-01-11T17:31:51.768Z,3.70
2018-01-11T17:34:21.560Z,3.70
2018-01-11T17:36:51.488Z,3.70
2018-01-11T17:39:21.290Z,3.70
2018-01-11T17:41:51.316Z,3.80
2018-01-11T17:44:21.158Z,3.70
2018-01-11T17:46:50.974Z,3.70
2018-01-11T17:49:27.152Z,3.70
2018-01-11T17:51:57.676Z,3.60
2018-01-11T17:54:27.471Z,3.60
2018-01-11T17:56:57.526Z,3.60
2018-01-11T17:59:27.351Z,3.60
2018-01-11T18:01:57.153Z,3.60
2018-01-11T18:04:27.010Z,3.50
2018-01-11T18:06:57.657Z,3.60
2018-01-11T18:09:27.488Z,3.60
2018-01-11T18:11:57.321Z,3.60
2018-01-11T18:14:27.148Z,3.60
2018-01-11T18:16:56.800Z,3.60
2018-01-11T18:19:26.600Z,3.60
2018-01-11T18:21:56.401Z,3.70
2018-01-11T18:24:26.980Z,3.70
2018-01-11T18:26:56.772Z,3.70
2018-01-11T18:29:26.573Z,3.70
2018-01-11T18:31:57.205Z,3.70
2018-01-11T18:34:27.828Z,3.70
2018-01-11T18:36:58.441Z,3.70
2018-01-11T18:39:28.301Z,3.70
2018-01-11T18:41:58.106Z,3.70
2018-01-11T18:44:27.890Z,3.60
2018-01-11T18:46:57.708Z,3.60
2018-01-11T18:49:28.276Z,3.70
2018-01-11T18:51:58.069Z,3.70
2018-01-11T18:54:27.912Z,3.60
2018-01-11T18:56:57.677Z,3.70
2018-01-11T18:59:28.285Z,3.70
2018-01-11T19:01:58.050Z,3.70
2018-01-11T19:04:27.892Z,3.70
2018-01-11T19:06:57.709Z,3.70
2018-01-11T19:09:27.593Z,3.70
2018-01-11T19:11:57.440Z,3.70
2018-01-11T19:14:27.256Z,3.70
2018-01-11T19:16:57.104Z,3.70
2018-01-11T19:19:27.636Z,3.60
2018-01-11T19:21:58.249Z,3.60
2018-01-11T19:24:28.041Z,3.60
2018-01-11T19:26:58.298Z,3.60
2018-01-11T19:29:28.858Z,3.60
2018-01-11T19:31:58.708Z,3.60
2018-01-11T19:34:28.485Z,3.70
2018-01-11T19:36:59.089Z,3.70
2018-01-11T19:39:29.625Z,3.70
2018-01-11T19:42:00.190Z,3.70
2018-01-11T19:44:29.944Z,3.70
2018-01-11T19:47:00.514Z,3.60
2018-01-11T19:49:31.030Z,3.60
2018-01-11T19:52:01.644Z,3.60
2018-01-11T19:54:32.321Z,3.60
2018-01-11T19:57:02.164Z,3.60
2018-01-11T19:59:31.972Z,3.60
2018-01-11T20:02:01.824Z,3.60
2018-01-11T20:04:32.204Z,3.50
2018-01-11T20:07:02.034Z,3.50
2018-01-11T20:09:31.837Z,3.50
2018-01-11T20:12:01.668Z,3.50
2018-01-11T20:14:31.488Z,3.50
2018-01-11T20:17:01.332Z,3.50
2018-01-11T20:19:31.887Z,3.40
2018-01-11T20:22:02.492Z,3.50
2018-01-11T20:24:32.277Z,3.50
2018-01-11T20:27:02.140Z,3.50
2018-01-11T20:29:32.721Z,3.50
2018-01-11T20:32:02.525Z,3.50
2018-01-11T20:34:32.344Z,3.50
2018-01-11T20:37:02.161Z,3.50
2018-01-11T20:39:31.825Z,3.60
2018-01-11T20:42:01.624Z,3.60
2018-01-11T20:44:32.378Z,3.60
2018-01-11T20:47:02.942Z,3.60
2018-01-11T20:49:32.831Z,3.60
2018-01-11T20:52:02.732Z,3.60
2018-01-11T20:54:32.633Z,3.60
2018-01-11T20:57:02.485Z,3.60
2018-01-11T20:59:33.107Z,3.60
2018-01-11T21:02:02.925Z,3.60
2018-01-11T21:04:33.401Z,3.60
2018-01-11T21:07:03.260Z,3.50
2018-01-11T21:09:33.100Z,3.50
2018-01-11T21:12:03.705Z,3.50
2018-01-11T21:14:34.368Z,3.50
2018-01-11T21:17:05.010Z,3.50
2018-01-11T21:19:34.808Z,3.50
2018-01-11T21:22:04.682Z,3.50
2018-01-11T21:24:34.569Z,3.50
2018-01-11T21:27:04.526Z,3.40
2018-01-11T21:29:34.415Z,3.40
2018-01-11T21:32:05.149Z,3.40
2018-01-11T21:34:35.007Z,3.50
2018-01-11T21:37:04.837Z,3.50
2018-01-11T21:39:35.467Z,3.50
2018-01-11T21:42:05.305Z,3.50
2018-01-11T21:44:35.164Z,3.50
2018-01-11T21:47:05.007Z,3.40
2018-01-11T21:49:35.064Z,3.50
2018-01-11T21:52:05.877Z,3.50
2018-01-11T21:54:35.685Z,3.50
2018-01-11T21:57:05.912Z,3.50
2018-01-11T21:59:35.733Z,3.50
2018-01-11T22:02:05.599Z,3.50
2018-01-11T22:04:35.425Z,3.40
2018-01-11T22:07:05.240Z,3.40
2018-01-11T22:09:35.220Z,3.40
2018-01-11T22:12:05.926Z,3.50
2018-01-11T22:14:35.829Z,3.50
2018-01-11T22:17:05.693Z,3.50
2018-01-11T22:19:36.073Z,3.50
2018-01-11T22:22:05.978Z,3.50
2018-01-11T22:24:35.772Z,3.40
2018-01-11T22:27:05.377Z,3.40
2018-01-11T22:29:35.199Z,3.30
2018-01-11T22:32:05.048Z,3.20
2018-01-11T22:34:35.653Z,3.30
2018-01-11T22:37:05.494Z,3.30
2018-01-11T22:39:36.114Z,3.20
2018-01-11T22:42:06.724Z,3.40
2018-01-11T22:44:36.237Z,3.40
2018-01-11T22:47:06.054Z,3.40
2018-01-11T22:49:35.884Z,3.40
2018-01-11T22:52:06.494Z,3.50
2018-01-11T22:54:36.334Z,3.50
2018-01-11T22:57:06.255Z,3.50
2018-01-11T22:59:36.844Z,3.50
2018-01-11T23:02:06.688Z,3.50
2018-01-11T23:04:36.518Z,3.40
2018-01-11T23:07:06.334Z,3.40
2018-01-11T23:09:36.412Z,3.40
2018-01-11T23:12:06.253Z,3.40
2018-01-11T23:14:36.054Z,3.40
2018-01-11T23:17:05.640Z,3.40
2018-01-11T23:19:37.386Z,3.50
2018-01-11T23:22:07.868Z,3.50
2018-01-11T23:24:40.112Z,3.50
2018-01-11T23:27:10.103Z,3.50
2018-01-11T23:29:39.925Z,3.50
2018-01-11T23:32:09.776Z,3.60
2018-01-11T23:34:39.590Z,3.50
2018-01-11T23:37:09.404Z,3.50
2018-01-11T23:39:39.261Z,3.50
2018-01-11T23:42:09.048Z,3.50
2018-01-11T23:44:39.666Z,3.50
2018-01-11T23:47:10.216Z,3.40
2018-01-11T23:49:40.856Z,3.50
2018-01-11T23:52:10.633Z,3.50
2018-01-11T23:54:40.484Z,3.50
2018-01-11T23:57:10.356Z,3.40
2018-01-11T23:59:40.134Z,3.40
